createdAt,value
2019-03-31T00:02:02.245Z,28.43
2019-03-31T00:04:28.450Z,30.10
2019-03-31T00:06:54.740Z,30.00
2019-03-31T00:09:21.048Z,28.53
2019-03-31T00:11:47.158Z,30.27
2019-03-31T00:14:13.365Z,30.13
2019-03-31T00:16:39.585Z,29.97
2019-03-31T00:19:05.780Z,28.80
2019-03-31T00:21:32.136Z,28.00
2019-03-31T00:23:58.358Z,27.87
2019-03-31T00:26:24.511Z,26.30
2019-03-31T00:28:50.872Z,27.40
2019-03-31T00:31:22.275Z,28.87
2019-03-31T00:33:45.132Z,27.47
2019-03-31T00:36:11.471Z,31.47
2019-03-31T00:38:38.892Z,30.77
2019-03-31T00:41:05.121Z,30.87
2019-03-31T00:43:31.336Z,30.10
2019-03-31T00:45:57.558Z,29.23
2019-03-31T00:48:23.755Z,28.90
2019-03-31T00:50:50.063Z,31.43
2019-03-31T00:53:16.313Z,29.40
2019-03-31T00:55:42.402Z,29.87
2019-03-31T00:58:08.663Z,29.77
2019-03-31T01:00:45.740Z,31.30
2019-03-31T01:03:14.043Z,31.53
2019-03-31T01:05:41.202Z,33.27
2019-03-31T01:08:07.632Z,31.90
2019-03-31T01:10:35.038Z,31.40
2019-03-31T01:13:01.448Z,32.40
2019-03-31T01:15:28.572Z,32.23
2019-03-31T01:17:55.180Z,30.57
2019-03-31T01:20:21.260Z,31.53
2019-03-31T01:22:47.434Z,30.83
2019-03-31T01:25:14.499Z,30.13
2019-03-31T01:27:41.229Z,30.13
2019-03-31T01:30:10.386Z,30.37
2019-03-31T01:32:37.911Z,31.40
2019-03-31T01:35:09.593Z,29.80
2019-03-31T01:37:35.991Z,31.17
2019-03-31T01:40:04.037Z,30.10
2019-03-31T01:42:31.542Z,29.67
2019-03-31T01:44:57.961Z,30.77
2019-03-31T01:47:24.207Z,30.63
2019-03-31T01:49:50.496Z,31.93
2019-03-31T01:52:16.592Z,30.07
2019-03-31T01:54:43.833Z,35.80
2019-03-31T01:57:10.055Z,40.03
2019-03-31T01:59:36.380Z,36.27
2019-03-31T02:02:04.477Z,33.77
2019-03-31T02:04:31.069Z,33.83
2019-03-31T02:06:57.294Z,33.77
2019-03-31T02:09:23.585Z,33.93
2019-03-31T02:11:49.785Z,33.40
2019-03-31T02:14:15.892Z,33.17
2019-03-31T02:16:42.186Z,34.10
2019-03-31T02:19:08.393Z,32.13
2019-03-31T02:21:34.749Z,31.73
2019-03-31T02:24:01.062Z,32.30
2019-03-31T02:26:27.174Z,31.20
2019-03-31T02:28:53.373Z,28.03
2019-03-31T02:31:19.590Z,31.83
2019-03-31T02:33:45.695Z,31.40
2019-03-31T02:36:11.905Z,34.27
2019-03-31T02:38:38.149Z,34.67
2019-03-31T02:41:04.261Z,32.73
2019-03-31T02:43:30.358Z,32.20
2019-03-31T02:45:56.577Z,32.13
2019-03-31T02:48:22.698Z,31.13
2019-03-31T02:50:49.978Z,28.97
2019-03-31T02:53:17.683Z,30.90
2019-03-31T02:55:44.602Z,32.23
2019-03-31T02:58:12.961Z,33.47
2019-03-31T03:00:39.293Z,30.70
2019-03-31T03:03:05.999Z,32.20
2019-03-31T03:05:32.778Z,34.13
2019-03-31T03:07:59.870Z,38.50
2019-03-31T03:10:26.567Z,39.47
2019-03-31T03:12:56.369Z,39.63
2019-03-31T03:15:26.417Z,37.37
2019-03-31T03:17:52.737Z,37.50
2019-03-31T03:20:18.878Z,38.47
2019-03-31T03:22:45.004Z,39.20
2019-03-31T03:25:11.094Z,40.63
2019-03-31T03:27:37.403Z,38.53
2019-03-31T03:30:05.197Z,35.20
2019-03-31T03:32:31.486Z,34.20
2019-03-31T03:34:57.618Z,32.57
2019-03-31T03:37:23.684Z,35.00
2019-03-31T03:39:49.759Z,33.00
2019-03-31T03:42:15.863Z,36.93
2019-03-31T03:44:42.959Z,38.77
2019-03-31T03:47:09.186Z,41.20
2019-03-31T03:49:35.364Z,46.37
2019-03-31T03:52:01.492Z,41.53
2019-03-31T03:54:27.826Z,41.03
2019-03-31T03:56:53.905Z,37.77
2019-03-31T03:59:20.138Z,43.40
2019-03-31T04:01:46.302Z,48.67
2019-03-31T04:04:12.629Z,48.10
2019-03-31T04:06:38.792Z,53.83
2019-03-31T04:09:05.592Z,55.17
2019-03-31T04:11:31.910Z,55.93
2019-03-31T04:13:58.101Z,55.80
2019-03-31T04:16:24.307Z,56.70
2019-03-31T04:18:50.640Z,56.80
2019-03-31T04:21:16.819Z,56.50
2019-03-31T04:23:43.160Z,59.37
2019-03-31T04:26:09.287Z,57.87
2019-03-31T04:28:35.618Z,56.73
2019-03-31T04:31:01.943Z,57.07
2019-03-31T04:33:48.382Z,57.57
2019-03-31T04:35:57.103Z,57.43
2019-03-31T04:38:23.204Z,57.87
2019-03-31T04:40:49.515Z,58.23
2019-03-31T04:43:15.799Z,59.97
2019-03-31T04:45:42.122Z,58.93
2019-03-31T04:48:09.296Z,57.80
2019-03-31T04:50:35.610Z,57.87
2019-03-31T04:53:01.739Z,58.60
2019-03-31T04:55:28.027Z,59.93
2019-03-31T04:57:54.222Z,58.20
2019-03-31T05:00:20.526Z,58.23
2019-03-31T05:02:46.739Z,61.07
2019-03-31T05:05:13.022Z,59.10
2019-03-31T05:07:39.340Z,57.97
2019-03-31T05:10:07.085Z,57.57
2019-03-31T05:12:33.184Z,59.00
2019-03-31T05:14:59.274Z,54.90
2019-03-31T05:17:25.472Z,57.63
2019-03-31T05:19:51.881Z,58.30
2019-03-31T05:22:18.158Z,59.03
2019-03-31T05:24:44.448Z,60.90
2019-03-31T05:27:10.593Z,62.43
2019-03-31T05:29:36.819Z,61.90
2019-03-31T05:32:03.971Z,62.37
2019-03-31T05:34:30.179Z,64.53
2019-03-31T05:36:56.357Z,62.63
2019-03-31T05:39:22.590Z,64.83
2019-03-31T05:41:48.769Z,63.83
2019-03-31T05:44:15.001Z,65.10
2019-03-31T05:46:41.215Z,66.53
2019-03-31T05:49:07.541Z,59.80
2019-03-31T05:51:33.776Z,58.27
2019-03-31T05:54:00.076Z,59.60
2019-03-31T05:56:27.096Z,58.93
2019-03-31T05:58:53.306Z,58.27
2019-03-31T06:01:19.591Z,57.27
2019-03-31T06:03:45.868Z,55.10
2019-03-31T06:06:12.196Z,54.33
2019-03-31T06:08:38.333Z,50.73
2019-03-31T06:11:04.557Z,48.60
2019-03-31T06:13:30.895Z,48.00
2019-03-31T06:15:58.219Z,47.77
2019-03-31T06:18:24.361Z,45.57
2019-03-31T06:20:50.587Z,46.17
2019-03-31T06:23:16.919Z,43.93
2019-03-31T06:25:43.264Z,45.77
2019-03-31T06:28:09.681Z,45.00
2019-03-31T06:30:35.900Z,45.33
2019-03-31T06:33:02.119Z,46.50
2019-03-31T06:35:28.499Z,43.23
2019-03-31T06:37:54.623Z,43.70
2019-03-31T06:40:20.810Z,43.93
2019-03-31T06:42:47.090Z,43.93
2019-03-31T06:45:13.366Z,42.73
2019-03-31T06:47:39.666Z,40.40
2019-03-31T06:50:07.273Z,39.83
2019-03-31T06:52:33.497Z,43.37
2019-03-31T06:54:59.682Z,43.70
2019-03-31T06:57:26.001Z,43.13
2019-03-31T06:59:52.190Z,42.10
2019-03-31T07:02:18.428Z,40.43
2019-03-31T07:04:44.692Z,41.73
2019-03-31T07:07:10.825Z,41.20
2019-03-31T07:09:37.010Z,38.70
2019-03-31T07:12:03.333Z,39.67
2019-03-31T07:14:29.452Z,39.43
2019-03-31T07:16:55.561Z,36.30
2019-03-31T07:19:22.014Z,33.20
2019-03-31T07:21:49.232Z,31.13
2019-03-31T07:24:15.456Z,32.57
2019-03-31T07:26:41.604Z,31.73
2019-03-31T07:29:07.829Z,29.93
2019-03-31T07:31:34.052Z,28.63
2019-03-31T07:34:00.289Z,28.20
2019-03-31T07:36:26.426Z,28.73
2019-03-31T07:38:52.780Z,27.47
2019-03-31T07:41:19.158Z,27.53
2019-03-31T07:43:45.632Z,25.97
2019-03-31T07:46:11.834Z,26.03
2019-03-31T07:48:38.074Z,26.83
2019-03-31T07:51:04.248Z,27.20
2019-03-31T07:53:30.452Z,28.00
2019-03-31T07:55:56.795Z,27.80
2019-03-31T07:58:23.059Z,26.73
2019-03-31T08:00:49.280Z,25.93
2019-03-31T08:03:15.505Z,25.80
2019-03-31T08:05:41.940Z,24.00
2019-03-31T08:08:08.315Z,24.90
2019-03-31T08:10:34.684Z,23.67
2019-03-31T08:13:01.521Z,22.43
2019-03-31T08:15:27.896Z,23.27
2019-03-31T08:17:54.168Z,20.80
2019-03-31T08:20:20.697Z,19.87
2019-03-31T08:22:46.919Z,16.97
2019-03-31T08:25:13.713Z,16.33
2019-03-31T08:27:40.006Z,16.00
2019-03-31T08:30:09.402Z,15.07
2019-03-31T08:32:35.540Z,14.37
2019-03-31T08:35:03.052Z,13.70
2019-03-31T08:37:29.159Z,13.13
2019-03-31T08:39:55.312Z,13.20
2019-03-31T08:42:21.564Z,12.40
2019-03-31T08:44:48.001Z,11.43
2019-03-31T08:47:14.153Z,11.87
2019-03-31T08:49:40.289Z,12.50
2019-03-31T08:52:06.604Z,13.63
2019-03-31T08:54:32.800Z,15.23
2019-03-31T08:56:59.214Z,11.37
2019-03-31T08:59:25.385Z,11.80
2019-03-31T09:01:52.024Z,12.50
2019-03-31T09:04:18.129Z,12.20
2019-03-31T09:06:44.553Z,10.77
2019-03-31T09:09:10.753Z,11.03
2019-03-31T09:11:37.103Z,12.10
2019-03-31T09:14:03.912Z,11.20
2019-03-31T09:16:30.228Z,10.63
2019-03-31T09:18:57.336Z,10.87
2019-03-31T09:21:24.897Z,11.00
2019-03-31T09:23:51.115Z,11.70
2019-03-31T09:26:18.677Z,11.23
2019-03-31T09:28:44.903Z,10.60
2019-03-31T09:31:11.109Z,10.20
2019-03-31T09:33:39.462Z,11.97
2019-03-31T09:36:16.106Z,10.30
2019-03-31T09:38:33.607Z,10.47
2019-03-31T09:40:59.844Z,9.23
2019-03-31T09:43:26.104Z,9.97
2019-03-31T09:45:52.253Z,8.83
2019-03-31T09:48:18.526Z,7.97
2019-03-31T09:50:44.806Z,7.80
2019-03-31T09:53:10.899Z,7.70
2019-03-31T09:55:37.155Z,8.27
2019-03-31T09:58:03.464Z,8.63
2019-03-31T10:00:44.092Z,7.77
2019-03-31T10:03:10.524Z,9.33
2019-03-31T10:05:36.853Z,9.60
2019-03-31T10:08:03.203Z,9.57
2019-03-31T10:10:31.299Z,9.83
2019-03-31T10:12:57.480Z,10.03
2019-03-31T10:15:23.660Z,9.73
2019-03-31T10:17:50.049Z,9.70
2019-03-31T10:20:16.371Z,9.70
2019-03-31T10:22:42.796Z,10.43
2019-03-31T10:25:09.411Z,10.77
2019-03-31T10:27:35.621Z,10.23
2019-03-31T10:30:04.323Z,11.40
2019-03-31T10:32:30.660Z,11.00
2019-03-31T10:34:56.895Z,11.50
2019-03-31T10:37:23.122Z,11.90
2019-03-31T10:39:49.448Z,12.63
2019-03-31T10:42:15.620Z,11.63
2019-03-31T10:44:41.836Z,11.70
2019-03-31T10:47:08.135Z,12.03
2019-03-31T10:49:34.339Z,10.80
2019-03-31T10:52:00.655Z,10.60
2019-03-31T10:54:26.853Z,9.67
2019-03-31T10:56:53.179Z,9.13
2019-03-31T10:59:19.413Z,11.00
2019-03-31T11:01:45.770Z,10.90
2019-03-31T11:04:12.097Z,11.00
2019-03-31T11:06:38.412Z,11.00
2019-03-31T11:09:05.268Z,10.50
2019-03-31T11:11:31.529Z,10.67
2019-03-31T11:13:57.884Z,11.00
2019-03-31T11:16:24.233Z,10.37
2019-03-31T11:18:50.493Z,10.37
2019-03-31T11:21:21.340Z,10.40
2019-03-31T11:23:47.666Z,11.17
2019-03-31T11:26:14.159Z,11.10
2019-03-31T11:28:40.802Z,11.10
2019-03-31T11:31:07.155Z,11.30
2019-03-31T11:33:33.500Z,13.00
2019-03-31T11:35:59.961Z,11.70
2019-03-31T11:38:26.302Z,10.83
2019-03-31T11:40:53.526Z,11.63
2019-03-31T11:43:19.788Z,11.33
2019-03-31T11:45:46.099Z,10.97
2019-03-31T11:48:12.340Z,10.90
2019-03-31T11:50:38.596Z,11.00
2019-03-31T11:53:04.894Z,10.40
2019-03-31T11:55:31.157Z,10.50
2019-03-31T11:57:57.592Z,10.27
2019-03-31T12:00:25.737Z,10.83
2019-03-31T12:02:52.230Z,11.13
2019-03-31T12:05:18.438Z,10.13
2019-03-31T12:07:47.093Z,11.10
2019-03-31T12:10:13.115Z,10.17
2019-03-31T12:12:39.355Z,10.93
2019-03-31T12:15:06.792Z,10.27
2019-03-31T12:17:33.135Z,9.87
2019-03-31T12:19:59.495Z,11.23
2019-03-31T12:22:25.847Z,10.10
2019-03-31T12:24:52.119Z,9.57
2019-03-31T12:27:18.515Z,8.83
2019-03-31T12:29:44.734Z,8.40
2019-03-31T12:32:11.014Z,8.17
2019-03-31T12:34:37.479Z,8.43
2019-03-31T12:37:03.835Z,6.47
2019-03-31T12:39:30.117Z,5.80
2019-03-31T12:41:56.380Z,6.63
2019-03-31T12:44:25.064Z,6.30
2019-03-31T12:46:50.836Z,4.87
2019-03-31T12:49:17.188Z,4.57
2019-03-31T12:51:43.535Z,4.27
2019-03-31T12:54:09.755Z,5.00
2019-03-31T12:56:36.179Z,4.37
2019-03-31T12:59:02.522Z,4.40
2019-03-31T13:01:29.752Z,4.17
2019-03-31T13:03:55.978Z,3.87
2019-03-31T13:06:22.345Z,3.70
2019-03-31T13:08:48.600Z,3.93
2019-03-31T13:11:14.866Z,3.77
2019-03-31T13:13:41.117Z,3.73
2019-03-31T13:16:07.465Z,3.53
2019-03-31T13:18:33.701Z,3.47
2019-03-31T13:21:00.026Z,3.87
2019-03-31T13:23:26.521Z,4.13
2019-03-31T13:25:52.860Z,3.80
2019-03-31T13:28:19.168Z,3.70
2019-03-31T13:30:45.510Z,3.50
2019-03-31T13:33:11.877Z,3.10
2019-03-31T13:35:38.329Z,3.00
2019-03-31T13:38:11.375Z,2.80
2019-03-31T13:40:33.249Z,3.43
2019-03-31T13:42:59.691Z,3.40
2019-03-31T13:45:26.173Z,3.33
2019-03-31T13:47:52.548Z,3.03
2019-03-31T13:50:18.946Z,3.27
2019-03-31T13:52:46.709Z,3.17
2019-03-31T13:55:13.101Z,3.00
2019-03-31T13:57:40.398Z,3.70
2019-03-31T14:00:09.250Z,3.87
2019-03-31T14:02:35.545Z,4.10
2019-03-31T14:05:02.058Z,3.80
2019-03-31T14:07:29.425Z,4.07
2019-03-31T14:09:55.952Z,3.70
2019-03-31T14:12:22.525Z,3.73
2019-03-31T14:14:48.731Z,3.87
2019-03-31T14:17:15.119Z,3.87
2019-03-31T14:19:41.361Z,3.90
2019-03-31T14:22:07.856Z,3.87
2019-03-31T14:24:33.977Z,4.57
2019-03-31T14:27:00.314Z,4.50
2019-03-31T14:29:26.898Z,4.83
2019-03-31T14:31:53.233Z,4.63
2019-03-31T14:34:19.532Z,4.60
2019-03-31T14:36:45.889Z,5.30
2019-03-31T14:39:12.296Z,4.73
2019-03-31T14:41:38.696Z,4.37
2019-03-31T14:44:04.948Z,4.97
2019-03-31T14:46:31.425Z,4.47
2019-03-31T14:48:57.962Z,4.87
2019-03-31T14:51:24.177Z,4.53
2019-03-31T14:53:50.469Z,4.33
2019-03-31T14:56:16.694Z,5.70
2019-03-31T14:58:42.838Z,6.10
2019-03-31T15:01:09.137Z,6.30
2019-03-31T15:03:35.408Z,5.97
2019-03-31T15:06:01.640Z,6.10
2019-03-31T15:08:27.884Z,6.33
2019-03-31T15:10:54.248Z,5.90
2019-03-31T15:13:20.985Z,5.60
2019-03-31T15:15:47.140Z,5.30
2019-03-31T15:18:13.633Z,5.70
2019-03-31T15:20:39.967Z,4.93
2019-03-31T15:23:06.420Z,5.53
2019-03-31T15:25:32.931Z,5.30
2019-03-31T15:27:59.041Z,5.40
2019-03-31T15:30:25.310Z,5.67
2019-03-31T15:32:51.601Z,5.80
2019-03-31T15:35:17.869Z,5.60
2019-03-31T15:37:44.235Z,5.37
2019-03-31T15:40:10.972Z,5.50
2019-03-31T15:42:37.221Z,5.33
2019-03-31T15:45:04.564Z,5.83
2019-03-31T15:47:31.004Z,5.60
2019-03-31T15:49:57.308Z,5.40
2019-03-31T15:52:23.787Z,5.10
2019-03-31T15:54:50.137Z,5.17
2019-03-31T15:57:16.505Z,4.90
2019-03-31T15:59:48.818Z,4.97
2019-03-31T16:02:15.401Z,4.63
2019-03-31T16:04:41.533Z,4.80
2019-03-31T16:07:07.859Z,4.73
2019-03-31T16:09:34.212Z,4.80
2019-03-31T16:12:00.661Z,4.53
2019-03-31T16:14:27.104Z,7.03
2019-03-31T16:16:53.321Z,4.13
2019-03-31T16:19:19.662Z,4.00
2019-03-31T16:21:45.867Z,5.30
2019-03-31T16:24:12.167Z,4.00
2019-03-31T16:26:38.551Z,3.80
2019-03-31T16:29:04.843Z,3.90
2019-03-31T16:31:31.205Z,5.00
2019-03-31T16:33:57.446Z,4.27
2019-03-31T16:36:23.729Z,4.07
2019-03-31T16:38:49.997Z,4.03
2019-03-31T16:41:16.242Z,4.10
2019-03-31T16:43:42.484Z,4.20
2019-03-31T16:46:08.850Z,4.57
2019-03-31T16:48:35.078Z,5.60
2019-03-31T16:51:01.199Z,4.47
2019-03-31T16:53:27.619Z,4.73
2019-03-31T16:55:53.956Z,4.63
2019-03-31T16:58:20.190Z,4.10
2019-03-31T17:00:46.435Z,4.23
2019-03-31T17:03:12.621Z,3.73
2019-03-31T17:05:38.951Z,4.93
2019-03-31T17:08:05.327Z,3.63
2019-03-31T17:10:31.554Z,3.97
2019-03-31T17:12:57.919Z,3.70
2019-03-31T17:15:24.168Z,3.67
2019-03-31T17:17:50.419Z,3.90
2019-03-31T17:20:16.673Z,4.30
2019-03-31T17:22:42.911Z,3.83
2019-03-31T17:25:09.289Z,3.57
2019-03-31T17:27:35.649Z,3.70
2019-03-31T17:30:04.082Z,3.90
2019-03-31T17:32:30.320Z,3.30
2019-03-31T17:34:57.878Z,3.63
2019-03-31T17:37:24.248Z,3.50
2019-03-31T17:40:05.102Z,3.63
2019-03-31T17:42:18.979Z,3.70
2019-03-31T17:44:47.194Z,4.40
2019-03-31T17:47:13.430Z,3.63
2019-03-31T17:49:39.648Z,3.47
2019-03-31T17:52:06.020Z,3.40
2019-03-31T17:54:32.286Z,3.63
2019-03-31T17:56:58.592Z,4.07
2019-03-31T17:59:24.696Z,3.70
2019-03-31T18:01:51.137Z,4.27
2019-03-31T18:04:17.502Z,3.20
2019-03-31T18:06:43.918Z,3.30
2019-03-31T18:09:10.174Z,3.80
2019-03-31T18:11:36.603Z,4.23
2019-03-31T18:14:06.723Z,3.97
2019-03-31T18:16:32.537Z,4.20
2019-03-31T18:18:59.883Z,3.67
2019-03-31T18:21:27.343Z,3.30
2019-03-31T18:23:53.824Z,3.50
2019-03-31T18:26:20.011Z,2.90
2019-03-31T18:28:46.466Z,3.80
2019-03-31T18:31:12.703Z,2.70
2019-03-31T18:33:39.033Z,3.00
2019-03-31T18:36:05.237Z,9.03
2019-03-31T18:38:31.566Z,13.77
2019-03-31T18:40:57.733Z,12.93
2019-03-31T18:43:24.007Z,7.90
2019-03-31T18:45:50.437Z,6.43
2019-03-31T18:48:16.579Z,5.40
2019-03-31T18:50:42.695Z,4.07
2019-03-31T18:53:10.932Z,3.20
2019-03-31T18:55:50.845Z,3.30
2019-03-31T18:58:21.587Z,3.50
2019-03-31T19:00:58.645Z,3.93
2019-03-31T19:03:41.767Z,3.33
2019-03-31T19:06:21.987Z,2.53
2019-03-31T19:08:52.919Z,2.50
2019-03-31T19:11:33.153Z,2.60
2019-03-31T19:14:04.490Z,2.30
2019-03-31T19:16:35.416Z,2.47
2019-03-31T19:19:09.522Z,2.67
2019-03-31T19:21:40.539Z,2.73
2019-03-31T19:24:26.663Z,3.10
2019-03-31T19:27:11.406Z,2.83
2019-03-31T19:29:51.896Z,2.60
2019-03-31T19:32:26.105Z,2.37
2019-03-31T19:34:54.359Z,2.50
2019-03-31T19:37:39.246Z,2.83
2019-03-31T19:40:07.475Z,2.97
2019-03-31T19:42:35.499Z,3.40
2019-03-31T19:45:04.974Z,2.80
2019-03-31T19:47:39.214Z,2.70
2019-03-31T19:50:07.535Z,2.97
2019-03-31T19:52:47.578Z,2.90
2019-03-31T19:55:34.027Z,2.87
2019-03-31T19:58:02.374Z,3.10
2019-03-31T20:00:30.544Z,2.70
2019-03-31T20:03:04.666Z,2.63
2019-03-31T20:05:32.828Z,4.87
2019-03-31T20:08:06.681Z,3.30
2019-03-31T20:10:52.813Z,3.57
2019-03-31T20:13:46.212Z,3.37
2019-03-31T20:16:17.400Z,3.27
2019-03-31T20:19:00.494Z,2.80
2019-03-31T20:21:32.570Z,3.00
2019-03-31T20:24:13.017Z,3.37
2019-03-31T20:26:44.356Z,3.60
2019-03-31T20:29:15.486Z,3.50
2019-03-31T20:32:01.583Z,3.53
2019-03-31T20:34:32.790Z,3.37
2019-03-31T20:37:01.138Z,2.93
2019-03-31T20:39:29.239Z,2.83
2019-03-31T20:42:03.417Z,2.50
2019-03-31T20:44:29.837Z,2.40
2019-03-31T20:46:56.052Z,2.60
2019-03-31T20:49:22.402Z,3.13
2019-03-31T20:51:48.693Z,2.80
2019-03-31T20:54:14.956Z,2.87
2019-03-31T20:56:41.161Z,3.10
2019-03-31T20:59:07.363Z,2.70
2019-03-31T21:01:33.794Z,2.63
2019-03-31T21:03:59.978Z,2.53
2019-03-31T21:06:26.306Z,2.50
2019-03-31T21:08:52.633Z,2.50
2019-03-31T21:11:18.834Z,2.77
2019-03-31T21:13:46.278Z,2.97
2019-03-31T21:16:12.365Z,2.80
2019-03-31T21:18:38.595Z,2.40
2019-03-31T21:21:05.745Z,2.80
2019-03-31T21:23:32.303Z,2.13
2019-03-31T21:25:58.424Z,2.30
2019-03-31T21:28:24.658Z,2.57
2019-03-31T21:30:50.886Z,2.37
2019-03-31T21:33:17.105Z,2.77
2019-03-31T21:35:43.354Z,2.23
2019-03-31T21:38:09.575Z,2.77
2019-03-31T21:40:35.716Z,2.20
2019-03-31T21:43:01.840Z,2.20
2019-03-31T21:45:28.045Z,2.40
2019-03-31T21:47:54.264Z,2.37
2019-03-31T21:50:20.605Z,3.03
2019-03-31T21:52:46.845Z,2.13
2019-03-31T21:55:13.085Z,2.27
2019-03-31T21:57:39.311Z,2.13
2019-03-31T22:00:09.092Z,2.40
2019-03-31T22:02:37.491Z,2.20
2019-03-31T22:05:06.900Z,2.30
2019-03-31T22:07:33.219Z,2.40
2019-03-31T22:09:59.529Z,2.10
2019-03-31T22:12:25.728Z,2.17
2019-03-31T22:14:51.960Z,2.50
2019-03-31T22:17:18.263Z,2.63
2019-03-31T22:19:44.675Z,2.40
2019-03-31T22:22:11.020Z,2.10
2019-03-31T22:24:37.842Z,2.50
2019-03-31T22:27:04.192Z,2.07
2019-03-31T22:29:30.586Z,2.30
2019-03-31T22:31:57.096Z,2.47
2019-03-31T22:34:23.461Z,2.47
2019-03-31T22:36:49.707Z,2.40
2019-03-31T22:39:16.295Z,2.30
2019-03-31T22:41:42.582Z,2.13
2019-03-31T22:44:09.021Z,2.37
2019-03-31T22:46:35.261Z,2.60
2019-03-31T22:49:01.483Z,2.27
2019-03-31T22:51:27.712Z,2.37
2019-03-31T22:53:54.194Z,2.17
2019-03-31T22:56:20.634Z,2.20
2019-03-31T22:58:46.970Z,2.33
2019-03-31T23:01:13.417Z,2.20
2019-03-31T23:03:39.731Z,2.10
2019-03-31T23:06:06.066Z,2.63
2019-03-31T23:08:32.348Z,2.00
2019-03-31T23:10:58.679Z,1.97
2019-03-31T23:13:24.938Z,2.40
2019-03-31T23:15:51.313Z,2.70
2019-03-31T23:18:17.420Z,2.10
2019-03-31T23:20:43.772Z,2.27
2019-03-31T23:23:09.987Z,2.03
2019-03-31T23:25:36.396Z,2.30
2019-03-31T23:28:02.774Z,2.27
2019-03-31T23:30:29.129Z,2.50
2019-03-31T23:32:55.473Z,2.30
2019-03-31T23:35:21.764Z,2.10
2019-03-31T23:37:48.060Z,2.20
2019-03-31T23:40:14.468Z,3.10
2019-03-31T23:42:40.722Z,2.20
2019-03-31T23:45:09.124Z,2.20
2019-03-31T23:47:35.274Z,2.43
2019-03-31T23:50:01.650Z,2.20
2019-03-31T23:52:28.517Z,2.10
2019-03-31T23:54:54.820Z,2.47
2019-03-31T23:57:23.008Z,2.23
2019-03-31T23:59:49.111Z,2.70
